createdAt,value
2019-05-02T00:01:38.491Z,8.60
2019-05-02T00:04:12.443Z,8.60
2019-05-02T00:06:44.200Z,8.60
2019-05-02T00:09:15.021Z,8.60
2019-05-02T00:11:58.319Z,8.50
2019-05-02T00:14:18.714Z,8.50
2019-05-02T00:16:50.481Z,8.50
2019-05-02T00:19:21.367Z,8.40
2019-05-02T00:21:52.013Z,8.50
2019-05-02T00:24:22.759Z,8.40
2019-05-02T00:26:56.119Z,8.40
2019-05-02T00:29:25.867Z,8.40
2019-05-02T00:31:56.599Z,8.40
2019-05-02T00:34:27.365Z,8.40
2019-05-02T00:36:58.102Z,8.40
2019-05-02T00:39:28.878Z,8.40
2019-05-02T00:42:12.113Z,8.40
2019-05-02T00:44:32.051Z,8.40
2019-05-02T00:47:14.181Z,8.30
2019-05-02T00:49:46.887Z,8.30
2019-05-02T00:52:17.700Z,8.30
2019-05-02T00:54:48.519Z,8.20
2019-05-02T00:57:19.993Z,8.20
2019-05-02T00:59:51.665Z,8.20
2019-05-02T01:02:35.854Z,8.10
2019-05-02T01:05:04.702Z,8.10
2019-05-02T01:07:35.427Z,8.00
2019-05-02T01:10:06.442Z,8.00
2019-05-02T01:12:40.041Z,8.00
2019-05-02T01:15:10.104Z,8.00
2019-05-02T01:17:40.909Z,8.00
2019-05-02T01:20:11.716Z,8.00
2019-05-02T01:22:42.427Z,8.00
2019-05-02T01:25:15.801Z,7.90
2019-05-02T01:28:03.201Z,8.00
2019-05-02T01:30:52.502Z,7.90
2019-05-02T01:33:29.479Z,7.90
2019-05-02T01:36:08.197Z,7.90
2019-05-02T01:38:42.785Z,7.90
2019-05-02T01:41:13.593Z,7.90
2019-05-02T01:43:44.391Z,7.80
2019-05-02T01:46:17.091Z,7.80
2019-05-02T01:48:47.807Z,7.80
2019-05-02T01:51:18.686Z,7.80
2019-05-02T01:53:49.493Z,7.80
2019-05-02T01:56:20.289Z,7.80
2019-05-02T01:58:55.803Z,7.70
2019-05-02T02:01:23.472Z,7.70
2019-05-02T02:03:54.278Z,7.70
2019-05-02T02:06:25.055Z,7.70
2019-05-02T02:08:55.892Z,7.70
2019-05-02T02:11:28.478Z,7.70
2019-05-02T02:13:59.074Z,7.70
2019-05-02T02:16:30.074Z,7.70
2019-05-02T02:19:08.454Z,7.70
2019-05-02T02:21:57.453Z,7.80
2019-05-02T02:24:31.442Z,7.80
2019-05-02T02:27:02.212Z,7.80
2019-05-02T02:29:32.980Z,7.80
2019-05-02T02:32:03.787Z,7.70
2019-05-02T02:34:34.534Z,7.80
2019-05-02T02:37:11.771Z,7.80
2019-05-02T02:39:37.764Z,7.80
2019-05-02T02:42:08.631Z,7.80
2019-05-02T02:44:56.631Z,7.70
2019-05-02T02:47:27.477Z,7.70
2019-05-02T02:50:02.733Z,7.70
2019-05-02T02:52:30.631Z,7.70
2019-05-02T02:55:01.397Z,7.70
2019-05-02T02:57:32.163Z,7.70
2019-05-02T03:00:08.038Z,7.70
2019-05-02T03:02:35.450Z,7.70
2019-05-02T03:05:06.554Z,7.70
2019-05-02T03:07:37.332Z,7.60
2019-05-02T03:10:08.537Z,7.60
2019-05-02T03:12:51.596Z,7.50
2019-05-02T03:15:28.195Z,7.50
2019-05-02T03:17:59.983Z,7.40
2019-05-02T03:20:28.075Z,7.50
2019-05-02T03:22:58.812Z,7.50
2019-05-02T03:25:49.039Z,7.50
2019-05-02T03:28:02.017Z,7.50
2019-05-02T03:30:37.243Z,7.50
2019-05-02T03:33:10.915Z,7.50
2019-05-02T03:35:44.863Z,7.50
2019-05-02T03:38:10.211Z,7.50
2019-05-02T03:40:41.354Z,7.50
2019-05-02T03:43:19.081Z,7.60
2019-05-02T03:45:45.573Z,7.60
2019-05-02T03:48:18.254Z,7.60
2019-05-02T03:50:49.435Z,7.60
2019-05-02T03:53:25.128Z,7.70
2019-05-02T03:55:52.857Z,7.70
2019-05-02T03:58:23.757Z,7.70
2019-05-02T04:01:00.258Z,7.70
2019-05-02T04:03:34.078Z,7.80
2019-05-02T04:06:01.254Z,7.80
2019-05-02T04:08:33.226Z,7.90
2019-05-02T04:11:22.791Z,7.90
2019-05-02T04:13:57.459Z,7.90
2019-05-02T04:16:29.940Z,7.90
2019-05-02T04:19:05.635Z,8.00
2019-05-02T04:21:36.808Z,8.00
2019-05-02T04:24:13.665Z,8.00
2019-05-02T04:26:52.117Z,7.90
2019-05-02T04:29:12.715Z,7.90
2019-05-02T04:31:43.506Z,7.90
2019-05-02T04:34:17.548Z,7.90
2019-05-02T04:36:47.473Z,7.90
2019-05-02T04:39:21.648Z,7.90
2019-05-02T04:41:51.463Z,7.90
2019-05-02T04:44:22.248Z,7.90
2019-05-02T04:46:59.845Z,7.90
2019-05-02T04:49:29.768Z,7.90
2019-05-02T04:52:05.907Z,8.00
2019-05-02T04:54:32.570Z,8.00
2019-05-02T04:57:02.847Z,8.00
2019-05-02T04:59:33.712Z,8.00
2019-05-02T05:02:04.484Z,8.00
2019-05-02T05:04:41.920Z,8.00
2019-05-02T05:07:09.320Z,8.10
2019-05-02T05:09:40.519Z,8.10
2019-05-02T05:12:11.403Z,8.10
2019-05-02T05:14:43.309Z,8.10
2019-05-02T05:17:14.182Z,8.10
2019-05-02T05:19:44.951Z,8.10
2019-05-02T05:22:18.251Z,8.00
2019-05-02T05:24:53.944Z,8.00
2019-05-02T05:27:24.720Z,8.00
2019-05-02T05:29:59.496Z,8.00
2019-05-02T05:32:28.237Z,8.00
2019-05-02T05:35:03.398Z,8.10
2019-05-02T05:37:31.525Z,8.20
2019-05-02T05:40:02.314Z,8.10
2019-05-02T05:42:33.478Z,8.10
2019-05-02T05:45:09.869Z,8.10
2019-05-02T05:47:37.847Z,8.00
2019-05-02T05:50:08.719Z,7.90
2019-05-02T05:52:42.454Z,7.90
2019-05-02T05:55:12.760Z,7.90
2019-05-02T05:57:44.268Z,7.90
2019-05-02T06:00:18.853Z,7.90
2019-05-02T06:02:53.982Z,7.90
2019-05-02T06:05:20.350Z,7.90
2019-05-02T06:07:51.154Z,7.90
2019-05-02T06:10:21.910Z,7.80
2019-05-02T06:12:52.697Z,7.70
2019-05-02T06:15:23.463Z,7.70
2019-05-02T06:17:54.210Z,7.70
2019-05-02T06:20:25.698Z,7.70
2019-05-02T06:23:00.002Z,7.70
2019-05-02T06:25:34.183Z,7.70
2019-05-02T06:28:05.453Z,7.70
2019-05-02T06:30:34.865Z,7.70
2019-05-02T06:33:05.670Z,7.70
2019-05-02T06:35:36.455Z,7.70
2019-05-02T06:38:07.241Z,7.90
2019-05-02T06:40:39.338Z,8.00
2019-05-02T06:43:11.423Z,8.00
2019-05-02T06:45:42.322Z,8.10
2019-05-02T06:48:16.838Z,8.00
2019-05-02T06:50:45.504Z,8.10
2019-05-02T06:53:16.291Z,8.10
2019-05-02T06:55:47.096Z,8.10
2019-05-02T06:58:17.893Z,8.10
2019-05-02T07:00:57.721Z,8.10
2019-05-02T07:03:21.079Z,8.10
2019-05-02T07:05:51.873Z,8.20
2019-05-02T07:08:22.685Z,8.30
2019-05-02T07:10:55.951Z,8.50
2019-05-02T07:13:25.902Z,8.60
2019-05-02T07:16:37.257Z,8.60
2019-05-02T07:18:53.150Z,8.60
2019-05-02T07:21:23.947Z,8.60
2019-05-02T07:23:55.227Z,8.60
2019-05-02T07:26:26.009Z,8.70
2019-05-02T07:28:56.696Z,8.60
2019-05-02T07:31:27.544Z,8.60
2019-05-02T07:33:58.309Z,8.60
2019-05-02T07:36:31.308Z,8.60
2019-05-02T07:39:05.166Z,8.70
2019-05-02T07:41:37.055Z,8.80
2019-05-02T07:44:06.395Z,8.90
2019-05-02T07:46:50.685Z,9.10
2019-05-02T07:49:09.590Z,9.20
2019-05-02T07:51:40.424Z,9.30
2019-05-02T07:54:11.220Z,9.30
2019-05-02T07:56:41.936Z,9.20
2019-05-02T07:59:12.684Z,9.20
2019-05-02T08:01:44.954Z,9.20
2019-05-02T08:04:15.837Z,9.20
2019-05-02T08:06:46.642Z,9.50
2019-05-02T08:09:17.438Z,9.70
2019-05-02T08:11:48.682Z,9.80
2019-05-02T08:14:19.468Z,10.00
2019-05-02T08:16:50.259Z,10.20
2019-05-02T08:19:23.478Z,10.40
2019-05-02T08:21:53.491Z,10.30
2019-05-02T08:24:24.288Z,10.40
2019-05-02T08:27:14.329Z,10.60
2019-05-02T08:29:45.134Z,10.70
2019-05-02T08:32:15.952Z,10.60
2019-05-02T08:34:51.660Z,10.60
2019-05-02T08:37:19.363Z,10.70
2019-05-02T08:40:11.949Z,10.70
2019-05-02T08:42:42.961Z,10.90
2019-05-02T08:45:14.494Z,11.20
2019-05-02T08:47:45.315Z,11.20
2019-05-02T08:50:16.270Z,11.50
2019-05-02T08:52:48.085Z,11.80
2019-05-02T08:55:19.035Z,11.90
2019-05-02T08:57:49.839Z,11.80
2019-05-02T09:00:20.807Z,12.00
2019-05-02T09:02:51.583Z,12.30
2019-05-02T09:05:22.358Z,12.30
2019-05-02T09:07:53.155Z,12.30
2019-05-02T09:10:23.911Z,12.10
2019-05-02T09:12:54.677Z,12.10
2019-05-02T09:15:25.454Z,12.30
2019-05-02T09:17:56.655Z,12.30
2019-05-02T09:20:27.524Z,12.40
2019-05-02T09:22:58.292Z,12.70
2019-05-02T09:25:29.109Z,12.90
2019-05-02T09:28:01.739Z,13.20
2019-05-02T09:30:32.688Z,13.40
2019-05-02T09:33:06.605Z,13.50
2019-05-02T09:35:36.025Z,13.60
2019-05-02T09:38:06.821Z,13.90
2019-05-02T09:40:37.650Z,13.80
2019-05-02T09:43:08.446Z,13.90
2019-05-02T09:45:41.275Z,14.00
2019-05-02T09:48:12.567Z,14.20
2019-05-02T09:51:04.534Z,14.50
2019-05-02T09:53:35.332Z,14.30
2019-05-02T09:56:06.121Z,14.20
2019-05-02T09:58:36.897Z,14.10
2019-05-02T10:01:31.749Z,14.40
2019-05-02T10:04:02.539Z,14.70
2019-05-02T10:06:34.096Z,14.90
2019-05-02T10:09:07.268Z,15.00
2019-05-02T10:11:38.067Z,15.10
2019-05-02T10:14:08.851Z,15.10
2019-05-02T10:16:39.667Z,15.10
2019-05-02T10:19:11.447Z,15.30
2019-05-02T10:21:46.860Z,15.30
2019-05-02T10:24:15.247Z,15.50
2019-05-02T10:26:46.043Z,15.70
2019-05-02T10:29:21.005Z,16.00
2019-05-02T10:31:49.287Z,16.00
2019-05-02T10:34:20.526Z,15.70
2019-05-02T10:36:58.502Z,15.50
2019-05-02T10:39:28.401Z,15.30
2019-05-02T10:41:57.656Z,15.30
2019-05-02T10:44:32.760Z,15.50
2019-05-02T10:47:02.784Z,15.80
2019-05-02T10:49:52.745Z,16.10
2019-05-02T10:52:29.710Z,16.20
2019-05-02T10:54:56.060Z,16.40
2019-05-02T10:57:26.826Z,16.40
2019-05-02T10:59:57.656Z,16.30
2019-05-02T11:02:46.013Z,16.40
2019-05-02T11:05:22.538Z,16.50
2019-05-02T11:07:52.353Z,16.40
2019-05-02T11:10:23.183Z,16.40
2019-05-02T11:13:03.331Z,16.50
2019-05-02T11:15:53.903Z,16.70
2019-05-02T11:18:40.271Z,17.10
2019-05-02T11:21:06.788Z,17.00
2019-05-02T11:23:32.838Z,17.00
2019-05-02T11:26:03.709Z,17.30
2019-05-02T11:28:34.525Z,17.50
2019-05-02T11:31:06.918Z,17.40
2019-05-02T11:33:37.698Z,17.50
2019-05-02T11:36:08.515Z,17.40
2019-05-02T11:38:40.733Z,17.40
2019-05-02T11:41:11.961Z,17.20
2019-05-02T11:43:44.943Z,17.10
2019-05-02T11:46:15.201Z,16.90
2019-05-02T11:48:55.644Z,16.80
2019-05-02T11:51:18.534Z,16.50
2019-05-02T11:53:49.341Z,16.40
2019-05-02T11:56:22.044Z,16.30
2019-05-02T11:58:52.954Z,16.30
2019-05-02T12:01:35.807Z,16.40
2019-05-02T12:03:56.786Z,16.30
2019-05-02T12:06:29.292Z,16.20
2019-05-02T12:09:01.917Z,16.50
2019-05-02T12:11:32.521Z,16.60
2019-05-02T12:14:03.232Z,16.60
2019-05-02T12:16:34.038Z,16.60
2019-05-02T12:19:11.337Z,16.50
2019-05-02T12:21:39.213Z,16.40
2019-05-02T12:24:09.638Z,16.40
2019-05-02T12:26:41.914Z,16.40
2019-05-02T12:29:12.764Z,16.40
2019-05-02T12:31:47.238Z,16.30
2019-05-02T12:34:16.014Z,16.40
2019-05-02T12:36:46.730Z,16.80
2019-05-02T12:39:17.556Z,17.10
2019-05-02T12:41:48.635Z,17.80
2019-05-02T12:44:19.640Z,18.80
2019-05-02T12:46:51.795Z,19.60
2019-05-02T12:49:27.676Z,19.90
2019-05-02T12:51:55.180Z,19.80
2019-05-02T12:54:25.975Z,20.50
2019-05-02T12:56:56.754Z,21.10
2019-05-02T12:59:46.583Z,20.80
2019-05-02T13:02:26.228Z,20.30
2019-05-02T13:04:56.977Z,20.30
2019-05-02T13:07:27.724Z,21.00
2019-05-02T13:09:58.480Z,21.20
2019-05-02T13:12:32.361Z,21.10
2019-05-02T13:15:03.283Z,20.50
2019-05-02T13:17:37.196Z,19.80
2019-05-02T13:20:08.945Z,20.00
2019-05-02T13:23:05.034Z,20.40
2019-05-02T13:25:37.050Z,20.00
2019-05-02T13:28:07.862Z,20.00
2019-05-02T13:30:52.548Z,20.70
2019-05-02T13:33:34.410Z,21.70
2019-05-02T13:36:03.238Z,22.40
2019-05-02T13:38:34.113Z,22.50
2019-05-02T13:41:04.999Z,21.70
2019-05-02T13:43:44.222Z,20.70
2019-05-02T13:46:22.192Z,19.90
2019-05-02T13:48:52.984Z,19.80
2019-05-02T13:51:23.778Z,20.30
2019-05-02T13:54:02.025Z,20.60
2019-05-02T13:56:52.684Z,20.40
2019-05-02T13:59:23.505Z,19.50
2019-05-02T14:01:55.020Z,19.00
2019-05-02T14:04:25.768Z,19.70
2019-05-02T14:06:56.554Z,20.90
2019-05-02T14:09:52.683Z,22.00
2019-05-02T14:12:44.848Z,22.60
2019-05-02T14:15:17.099Z,22.90
2019-05-02T14:17:47.846Z,23.50
2019-05-02T14:20:22.405Z,23.70
2019-05-02T14:22:53.306Z,23.20
2019-05-02T14:25:24.040Z,21.90
2019-05-02T14:27:55.749Z,21.00
2019-05-02T14:30:38.778Z,20.50
2019-05-02T14:33:03.918Z,20.30
2019-05-02T14:35:36.709Z,20.40
2019-05-02T14:38:13.218Z,20.30
2019-05-02T14:41:12.464Z,20.60
2019-05-02T14:43:56.311Z,20.40
2019-05-02T14:46:37.422Z,19.70
2019-05-02T14:48:59.582Z,19.30
2019-05-02T14:51:32.551Z,19.50
2019-05-02T14:54:08.003Z,19.60
2019-05-02T14:56:54.285Z,19.50
2019-05-02T14:59:25.011Z,19.30
2019-05-02T15:02:05.763Z,19.30
2019-05-02T15:04:32.112Z,19.30
2019-05-02T15:07:03.042Z,19.40
2019-05-02T15:09:36.113Z,19.70
2019-05-02T15:12:14.095Z,20.40
2019-05-02T15:14:38.941Z,20.90
2019-05-02T15:17:11.966Z,20.50
2019-05-02T15:19:42.731Z,19.60
2019-05-02T15:22:13.634Z,18.70
2019-05-02T15:24:44.458Z,18.20
2019-05-02T15:27:17.761Z,17.90
2019-05-02T15:29:47.824Z,17.60
2019-05-02T15:32:46.423Z,17.10
2019-05-02T15:35:26.870Z,16.90
2019-05-02T15:38:01.784Z,16.60
2019-05-02T15:43:02.781Z,16.00
2019-05-02T15:45:36.730Z,15.90
2019-05-02T15:48:05.725Z,15.80
2019-05-02T15:50:43.614Z,15.70
2019-05-02T15:53:17.760Z,15.70
2019-05-02T15:55:50.042Z,15.70
2019-05-02T15:58:23.824Z,15.60
2019-05-02T16:01:18.427Z,15.60
2019-05-02T16:03:52.261Z,15.60
2019-05-02T16:06:30.385Z,15.60
2019-05-02T16:08:55.501Z,15.40
2019-05-02T16:11:26.283Z,15.40
2019-05-02T16:13:57.048Z,15.30
2019-05-02T16:16:27.887Z,15.30
2019-05-02T16:18:58.745Z,15.30
2019-05-02T16:21:38.359Z,15.30
2019-05-02T16:24:25.220Z,15.30
2019-05-02T16:26:57.134Z,15.40
2019-05-02T16:29:29.021Z,15.40
2019-05-02T16:32:14.103Z,15.40
2019-05-02T16:34:54.766Z,15.40
2019-05-02T16:37:25.898Z,15.50
2019-05-02T16:39:56.733Z,15.50
2019-05-02T16:42:27.530Z,15.50
2019-05-02T16:44:58.332Z,15.40
2019-05-02T16:47:29.072Z,15.30
2019-05-02T16:49:59.878Z,15.20
2019-05-02T16:52:32.563Z,15.10
2019-05-02T16:55:03.140Z,15.00
2019-05-02T16:57:35.143Z,14.90
2019-05-02T17:00:08.055Z,14.90
2019-05-02T17:02:44.916Z,15.00
2019-05-02T17:05:12.043Z,15.00
2019-05-02T17:08:20.694Z,15.20
2019-05-02T17:11:15.357Z,15.30
2019-05-02T17:13:43.971Z,15.40
2019-05-02T17:16:17.142Z,15.40
2019-05-02T17:18:48.279Z,15.20
2019-05-02T17:21:19.562Z,15.00
2019-05-02T17:23:52.321Z,14.90
2019-05-02T17:26:22.910Z,14.70
2019-05-02T17:28:53.620Z,14.40
2019-05-02T17:31:24.486Z,14.30
2019-05-02T17:33:55.224Z,14.10
2019-05-02T17:36:28.625Z,14.10
2019-05-02T17:38:59.219Z,14.00
2019-05-02T17:41:31.812Z,13.90
2019-05-02T17:44:03.225Z,13.90
2019-05-02T17:46:58.360Z,13.80
2019-05-02T17:49:31.856Z,13.80
2019-05-02T17:52:26.690Z,13.80
2019-05-02T17:54:57.468Z,13.70
2019-05-02T17:57:28.491Z,13.60
2019-05-02T17:59:59.019Z,13.50
2019-05-02T18:02:31.601Z,13.40
2019-05-02T18:05:02.807Z,13.10
2019-05-02T18:07:36.158Z,12.80
2019-05-02T18:10:14.295Z,12.50
2019-05-02T18:12:38.992Z,12.30
2019-05-02T18:15:11.852Z,12.10
2019-05-02T18:17:42.795Z,12.00
2019-05-02T18:20:13.712Z,11.80
2019-05-02T18:22:48.712Z,11.70
2019-05-02T18:25:23.607Z,11.50
2019-05-02T18:27:49.412Z,11.40
2019-05-02T18:30:25.417Z,11.30
2019-05-02T18:32:57.809Z,11.30
2019-05-02T18:35:26.471Z,11.20
2019-05-02T18:37:57.308Z,11.00
2019-05-02T18:40:31.543Z,10.80
2019-05-02T18:43:02.207Z,10.70
2019-05-02T18:45:32.947Z,10.70
2019-05-02T18:48:06.638Z,10.60
2019-05-02T18:50:44.372Z,10.60
2019-05-02T18:53:11.149Z,10.50
2019-05-02T18:55:42.283Z,10.40
2019-05-02T18:58:13.104Z,10.30
2019-05-02T19:00:43.997Z,10.30
2019-05-02T19:03:17.073Z,10.20
2019-05-02T19:05:51.692Z,10.20
2019-05-02T19:08:29.124Z,10.10
2019-05-02T19:11:04.641Z,10.20
2019-05-02T19:13:24.927Z,10.10
2019-05-02T19:15:55.817Z,10.20
2019-05-02T19:18:26.592Z,10.20
2019-05-02T19:21:03.141Z,10.20
2019-05-02T19:23:35.727Z,10.10
2019-05-02T19:26:15.026Z,10.10
2019-05-02T19:29:15.737Z,10.10
2019-05-02T19:31:47.936Z,10.00
2019-05-02T19:34:25.275Z,10.10
2019-05-02T19:36:52.909Z,10.00
2019-05-02T19:39:24.341Z,9.90
2019-05-02T19:41:55.271Z,10.00
2019-05-02T19:44:29.066Z,9.90
2019-05-02T19:46:58.436Z,9.90
2019-05-02T19:49:29.214Z,9.90
2019-05-02T19:52:02.094Z,9.90
2019-05-02T19:54:39.567Z,9.80
2019-05-02T19:57:04.810Z,9.70
2019-05-02T19:59:35.626Z,9.70
2019-05-02T20:02:06.601Z,9.70
2019-05-02T20:04:37.597Z,9.60
2019-05-02T20:07:09.799Z,9.60
2019-05-02T20:09:43.602Z,9.60
2019-05-02T20:12:15.601Z,9.60
2019-05-02T20:14:47.540Z,9.60
2019-05-02T20:17:20.249Z,9.60
2019-05-02T20:19:57.787Z,9.70
2019-05-02T20:22:26.247Z,9.70
2019-05-02T20:25:00.154Z,9.70
2019-05-02T20:27:30.007Z,9.70
2019-05-02T20:30:02.463Z,9.70
2019-05-02T20:32:33.143Z,9.70
2019-05-02T20:35:04.049Z,9.70
2019-05-02T20:37:34.809Z,9.70
2019-05-02T20:40:05.873Z,9.70
2019-05-02T20:42:36.629Z,9.70
2019-05-02T20:45:07.715Z,9.70
2019-05-02T20:47:38.510Z,9.70
2019-05-02T20:50:09.288Z,9.80
2019-05-02T20:52:52.435Z,9.70
2019-05-02T20:55:23.183Z,9.70
2019-05-02T20:57:53.962Z,9.70
2019-05-02T21:00:26.854Z,9.70
2019-05-02T21:02:58.374Z,9.70
2019-05-02T21:05:36.012Z,9.80
2019-05-02T21:08:16.451Z,9.80
2019-05-02T21:10:48.187Z,9.80
2019-05-02T21:13:18.963Z,9.80
2019-05-02T21:15:49.709Z,9.80
2019-05-02T21:18:22.092Z,9.80
2019-05-02T21:20:52.973Z,9.70
2019-05-02T21:23:23.799Z,9.80
2019-05-02T21:25:54.556Z,9.70
2019-05-02T21:28:25.382Z,9.70
2019-05-02T21:30:56.118Z,9.80
2019-05-02T21:33:39.987Z,9.70
2019-05-02T21:36:12.036Z,9.70
2019-05-02T21:38:43.091Z,9.70
2019-05-02T21:41:14.161Z,9.70
2019-05-02T21:43:44.920Z,9.70
2019-05-02T21:46:15.709Z,9.60
2019-05-02T21:48:46.475Z,9.60
2019-05-02T21:51:45.038Z,9.60
2019-05-02T21:54:22.733Z,9.70
2019-05-02T21:56:59.854Z,9.60
2019-05-02T21:59:30.660Z,9.60
2019-05-02T22:02:02.423Z,9.60
2019-05-02T22:04:33.354Z,9.50
2019-05-02T22:07:04.420Z,9.50
2019-05-02T22:09:36.966Z,9.40
2019-05-02T22:12:08.113Z,9.40
2019-05-02T22:14:38.860Z,9.30
2019-05-02T22:17:09.572Z,9.30
2019-05-02T22:19:41.669Z,9.30
2019-05-02T22:22:12.459Z,9.30
2019-05-02T22:24:43.225Z,9.30
2019-05-02T22:27:13.994Z,9.30
2019-05-02T22:29:44.758Z,9.20
2019-05-02T22:32:15.487Z,9.30
2019-05-02T22:34:46.282Z,9.30
2019-05-02T22:37:18.578Z,9.30
2019-05-02T22:39:53.945Z,9.30
2019-05-02T22:42:24.632Z,9.30
2019-05-02T22:44:55.380Z,9.30
2019-05-02T22:47:26.114Z,9.30
2019-05-02T22:49:56.914Z,9.30
2019-05-02T22:52:46.732Z,9.30
2019-05-02T22:55:17.538Z,9.20
2019-05-02T22:57:48.295Z,9.20
2019-05-02T23:00:19.223Z,9.10
2019-05-02T23:02:49.993Z,9.10
2019-05-02T23:05:20.773Z,9.10
2019-05-02T23:07:52.677Z,9.10
2019-05-02T23:10:23.638Z,9.10
2019-05-02T23:12:54.403Z,9.10
2019-05-02T23:15:25.159Z,9.10
2019-05-02T23:17:55.915Z,9.10
2019-05-02T23:20:28.082Z,9.10
2019-05-02T23:22:58.858Z,9.10
2019-05-02T23:25:47.669Z,9.10
2019-05-02T23:28:22.157Z,9.20
2019-05-02T23:30:54.134Z,9.20
2019-05-02T23:33:28.060Z,9.20
2019-05-02T23:35:58.837Z,9.20
2019-05-02T23:38:29.623Z,9.20
2019-05-02T23:41:02.017Z,9.20
2019-05-02T23:43:32.957Z,9.20
2019-05-02T23:46:03.732Z,9.20
2019-05-02T23:48:34.500Z,9.20
2019-05-02T23:51:05.616Z,9.20
2019-05-02T23:53:36.403Z,9.20
2019-05-02T23:56:07.282Z,9.20
2019-05-02T23:58:38.023Z,9.20
